createdAt,value
2018-07-15T00:02:06.820Z,4.43
2018-07-15T00:04:35.589Z,5.33
2018-07-15T00:07:04.361Z,5.10
2018-07-15T00:09:33.124Z,5.70
2018-07-15T00:12:01.906Z,5.90
2018-07-15T00:14:30.686Z,5.07
2018-07-15T00:16:59.441Z,5.63
2018-07-15T00:19:28.214Z,5.43
2018-07-15T00:21:57.121Z,4.77
2018-07-15T00:24:26.075Z,5.73
2018-07-15T00:29:46.349Z,5.60
2018-07-15T00:32:15.273Z,6.13
2018-07-15T00:34:44.053Z,5.63
2018-07-15T00:37:12.696Z,5.30
2018-07-15T00:39:41.370Z,6.70
2018-07-15T00:42:10.132Z,6.63
2018-07-15T00:44:38.897Z,6.37
2018-07-15T00:47:07.473Z,5.80
2018-07-15T00:49:36.017Z,5.77
2018-07-15T00:52:04.762Z,5.30
2018-07-15T00:54:33.307Z,4.37
2018-07-15T00:57:01.993Z,6.00
2018-07-15T00:59:31.057Z,5.27
2018-07-15T01:01:59.877Z,7.73
2018-07-15T01:04:28.670Z,6.27
2018-07-15T01:06:57.425Z,4.83
2018-07-15T01:09:26.533Z,5.07
2018-07-15T01:11:55.293Z,4.77
2018-07-15T01:14:24.141Z,6.07
2018-07-15T01:16:52.944Z,5.00
2018-07-15T01:19:21.496Z,6.87
2018-07-15T01:21:50.198Z,6.67
2018-07-15T01:24:18.958Z,4.93
2018-07-15T01:26:47.742Z,7.83
2018-07-15T01:29:16.493Z,5.20
2018-07-15T01:31:45.373Z,7.07
2018-07-15T01:34:13.908Z,7.23
2018-07-15T01:36:42.633Z,5.67
2018-07-15T01:39:11.403Z,8.30
2018-07-15T01:41:40.301Z,6.67
2018-07-15T01:44:09.254Z,5.93
2018-07-15T01:46:38.149Z,6.53
2018-07-15T01:49:06.912Z,5.93
2018-07-15T01:51:35.774Z,7.30
2018-07-15T01:54:04.561Z,6.47
2018-07-15T01:56:33.349Z,5.87
2018-07-15T01:59:02.234Z,6.77
2018-07-15T02:01:31.033Z,8.53
2018-07-15T02:03:59.810Z,6.00
2018-07-15T02:06:28.587Z,6.63
2018-07-15T02:08:57.383Z,7.60
2018-07-15T02:11:26.106Z,6.37
2018-07-15T02:13:54.882Z,8.70
2018-07-15T02:16:23.671Z,8.83
2018-07-15T02:18:52.513Z,6.50
2018-07-15T02:21:21.414Z,6.97
2018-07-15T02:23:50.306Z,7.53
2018-07-15T02:26:19.093Z,7.73
2018-07-15T02:28:47.857Z,8.90
2018-07-15T02:31:16.673Z,7.67
2018-07-15T02:33:45.457Z,6.90
2018-07-15T02:36:14.230Z,7.30
2018-07-15T02:38:42.993Z,8.43
2018-07-15T02:41:11.778Z,8.30
2018-07-15T02:43:40.561Z,8.63
2018-07-15T02:46:09.285Z,9.93
2018-07-15T02:48:37.984Z,7.63
2018-07-15T02:51:06.913Z,7.77
2018-07-15T02:53:35.604Z,7.33
2018-07-15T02:56:04.512Z,7.40
2018-07-15T02:58:33.281Z,7.40
2018-07-15T03:01:01.861Z,9.33
2018-07-15T03:03:30.340Z,10.80
2018-07-15T03:06:00.238Z,9.27
2018-07-15T03:08:31.044Z,8.10
2018-07-15T03:11:01.708Z,10.93
2018-07-15T03:13:31.791Z,8.70
2018-07-15T03:16:02.080Z,10.63
2018-07-15T03:18:31.362Z,11.63
2018-07-15T03:21:00.250Z,10.33
2018-07-15T03:23:29.097Z,11.13
2018-07-15T03:25:57.945Z,11.17
2018-07-15T03:28:26.592Z,10.33
2018-07-15T03:30:55.269Z,11.97
2018-07-15T03:33:24.046Z,10.90
2018-07-15T03:35:52.909Z,11.23
2018-07-15T03:38:21.684Z,10.07
2018-07-15T03:40:50.578Z,11.13
2018-07-15T03:43:19.172Z,10.27
2018-07-15T03:45:47.841Z,11.40
2018-07-15T03:48:16.725Z,11.57
2018-07-15T03:50:45.573Z,11.20
2018-07-15T03:53:14.372Z,10.37
2018-07-15T03:55:43.121Z,10.53
2018-07-15T03:58:11.933Z,10.20
2018-07-15T04:00:40.756Z,10.37
2018-07-15T04:03:09.530Z,10.37
2018-07-15T04:05:38.529Z,10.63
2018-07-15T04:08:07.310Z,10.17
2018-07-15T04:10:36.098Z,11.20
2018-07-15T04:13:04.885Z,11.33
2018-07-15T04:15:33.673Z,11.40
2018-07-15T04:18:05.271Z,9.73
2018-07-15T04:20:36.236Z,11.60
2018-07-15T04:23:05.706Z,11.50
2018-07-15T04:25:35.336Z,12.00
2018-07-15T04:28:04.629Z,12.30
2018-07-15T04:30:33.337Z,13.67
2018-07-15T04:33:01.998Z,12.30
2018-07-15T04:35:30.599Z,12.50
2018-07-15T04:37:59.337Z,11.67
2018-07-15T04:40:28.046Z,12.13
2018-07-15T04:42:56.828Z,11.50
2018-07-15T04:45:25.622Z,9.77
2018-07-15T04:47:54.386Z,9.47
2018-07-15T04:50:23.173Z,9.97
2018-07-15T04:52:52.165Z,10.80
2018-07-15T04:55:20.962Z,10.13
2018-07-15T04:57:49.734Z,9.07
2018-07-15T05:00:18.534Z,13.87
2018-07-15T05:02:47.337Z,9.73
2018-07-15T05:05:16.120Z,10.53
2018-07-15T05:07:44.936Z,10.73
2018-07-15T05:10:13.541Z,10.87
2018-07-15T05:12:42.229Z,9.87
2018-07-15T05:15:11.002Z,10.37
2018-07-15T05:17:39.955Z,10.03
2018-07-15T05:20:08.774Z,9.40
2018-07-15T05:22:37.524Z,8.33
2018-07-15T05:25:06.235Z,9.33
2018-07-15T05:27:35.077Z,11.37
2018-07-15T05:30:03.869Z,8.80
2018-07-15T05:32:32.641Z,9.47
2018-07-15T05:35:01.520Z,9.67
2018-07-15T05:37:30.169Z,9.03
2018-07-15T05:39:58.973Z,10.87
2018-07-15T05:42:27.733Z,7.97
2018-07-15T05:44:56.562Z,7.47
2018-07-15T05:47:25.145Z,6.73
2018-07-15T05:49:53.831Z,8.83
2018-07-15T05:52:22.513Z,8.73
2018-07-15T05:54:51.014Z,7.20
2018-07-15T05:57:19.681Z,6.10
2018-07-15T05:59:48.561Z,6.73
2018-07-15T06:02:17.325Z,5.77
2018-07-15T06:04:46.125Z,5.60
2018-07-15T06:07:14.881Z,4.90
2018-07-15T06:09:43.661Z,4.60
2018-07-15T06:12:12.421Z,4.33
2018-07-15T06:14:41.201Z,5.17
2018-07-15T06:17:09.804Z,5.20
2018-07-15T06:19:38.625Z,4.07
2018-07-15T06:22:07.590Z,2.97
2018-07-15T06:24:36.380Z,4.07
2018-07-15T06:27:05.217Z,3.40
2018-07-15T06:29:33.986Z,2.77
2018-07-15T06:32:02.773Z,3.37
2018-07-15T06:34:31.525Z,2.20
2018-07-15T06:37:00.294Z,2.93
2018-07-15T06:39:28.824Z,2.73
2018-07-15T06:41:57.517Z,4.23
2018-07-15T06:44:26.301Z,4.40
2018-07-15T06:46:55.053Z,1.90
2018-07-15T06:49:23.941Z,4.53
2018-07-15T06:51:52.710Z,3.13
2018-07-15T06:54:21.622Z,2.63
2018-07-15T06:56:51.169Z,3.37
2018-07-15T06:59:19.964Z,2.87
2018-07-15T07:01:48.765Z,2.50
2018-07-15T07:04:17.552Z,2.67
2018-07-15T07:06:46.329Z,2.73
2018-07-15T07:09:15.136Z,2.83
2018-07-15T07:11:43.930Z,2.23
2018-07-15T07:14:12.696Z,2.03
2018-07-15T07:16:41.475Z,2.80
2018-07-15T07:19:10.298Z,2.87
2018-07-15T07:21:39.086Z,3.77
2018-07-15T07:24:07.866Z,4.93
2018-07-15T07:26:36.625Z,2.50
2018-07-15T07:29:05.376Z,2.97
2018-07-15T07:31:34.157Z,2.37
2018-07-15T07:34:02.737Z,2.20
2018-07-15T07:36:31.533Z,3.37
2018-07-15T07:39:00.202Z,3.20
2018-07-15T07:41:28.762Z,2.93
2018-07-15T07:43:57.493Z,2.43
2018-07-15T07:46:26.270Z,2.47
2018-07-15T07:48:54.861Z,2.30
2018-07-15T07:51:23.585Z,2.67
2018-07-15T07:53:52.352Z,2.37
2018-07-15T07:56:21.123Z,2.67
2018-07-15T07:58:49.685Z,3.67
2018-07-15T08:01:18.361Z,3.93
2018-07-15T08:03:47.138Z,4.40
2018-07-15T08:06:15.896Z,2.97
2018-07-15T08:08:44.690Z,2.77
2018-07-15T08:11:13.448Z,4.47
2018-07-15T08:13:42.193Z,3.63
2018-07-15T08:16:10.999Z,4.10
2018-07-15T08:18:39.744Z,3.17
2018-07-15T08:21:08.517Z,6.73
2018-07-15T08:23:37.460Z,5.20
2018-07-15T08:26:06.377Z,5.53
2018-07-15T08:28:35.305Z,5.83
2018-07-15T08:31:06.566Z,5.37
2018-07-15T08:33:35.349Z,4.27
2018-07-15T08:36:04.113Z,5.37
2018-07-15T08:38:33.215Z,6.13
2018-07-15T08:41:01.941Z,3.87
2018-07-15T08:43:30.709Z,7.00
2018-07-15T08:45:59.456Z,5.33
2018-07-15T08:48:28.258Z,6.10
2018-07-15T08:50:57.167Z,5.20
2018-07-15T08:53:25.937Z,8.73
2018-07-15T08:55:54.723Z,5.00
2018-07-15T08:58:23.517Z,7.83
2018-07-15T09:00:52.277Z,4.97
2018-07-15T09:03:21.094Z,6.73
2018-07-15T09:05:49.759Z,8.23
2018-07-15T09:08:18.537Z,9.53
2018-07-15T09:10:47.285Z,5.07
2018-07-15T09:13:16.025Z,4.77
2018-07-15T09:15:44.758Z,7.10
2018-07-15T09:18:13.554Z,15.63
2018-07-15T09:20:42.296Z,5.80
2018-07-15T09:23:11.069Z,8.53
2018-07-15T09:25:39.800Z,6.17
2018-07-15T09:28:08.573Z,6.53
2018-07-15T09:30:37.328Z,6.80
2018-07-15T09:33:06.138Z,6.13
2018-07-15T09:35:34.932Z,5.27
2018-07-15T09:38:04.026Z,7.13
2018-07-15T09:40:33.113Z,8.00
2018-07-15T09:43:01.944Z,5.60
2018-07-15T09:45:30.765Z,6.47
2018-07-15T09:47:59.514Z,6.93
2018-07-15T09:50:28.271Z,5.53
2018-07-15T09:52:57.013Z,6.07
2018-07-15T09:55:25.840Z,6.50
2018-07-15T09:57:54.621Z,5.83
2018-07-15T10:00:28.813Z,5.90
2018-07-15T10:02:57.577Z,6.90
2018-07-15T10:05:26.386Z,4.83
2018-07-15T10:07:55.154Z,6.93
2018-07-15T10:10:23.914Z,5.37
2018-07-15T10:12:52.650Z,5.83
2018-07-15T10:15:21.415Z,6.70
2018-07-15T10:17:50.194Z,4.90
2018-07-15T10:20:18.935Z,5.40
2018-07-15T10:22:47.731Z,6.67
2018-07-15T10:25:16.497Z,5.63
2018-07-15T10:27:45.274Z,5.33
2018-07-15T10:30:13.990Z,5.87
2018-07-15T10:32:42.753Z,5.63
2018-07-15T10:35:11.557Z,7.20
2018-07-15T10:37:40.302Z,6.63
2018-07-15T10:40:09.321Z,7.93
2018-07-15T10:42:38.106Z,4.90
2018-07-15T10:45:06.850Z,6.07
2018-07-15T10:47:35.617Z,5.83
2018-07-15T10:50:04.365Z,7.20
2018-07-15T10:52:33.122Z,6.47
2018-07-15T10:55:01.967Z,6.27
2018-07-15T10:57:30.722Z,6.47
2018-07-15T10:59:59.520Z,5.33
2018-07-15T11:02:28.255Z,5.47
2018-07-15T11:04:57.009Z,6.27
2018-07-15T11:07:25.746Z,5.60
2018-07-15T11:09:54.509Z,7.00
2018-07-15T11:12:23.313Z,4.43
2018-07-15T11:14:51.948Z,6.57
2018-07-15T11:17:20.625Z,6.07
2018-07-15T11:19:49.560Z,4.73
2018-07-15T11:22:18.463Z,5.30
2018-07-15T11:24:47.029Z,5.07
2018-07-15T11:27:15.681Z,5.37
2018-07-15T11:29:44.455Z,6.17
2018-07-15T11:32:13.198Z,5.00
2018-07-15T11:34:41.808Z,5.57
2018-07-15T11:37:10.457Z,4.03
2018-07-15T11:39:39.258Z,5.33
2018-07-15T11:42:07.996Z,3.63
2018-07-15T11:44:36.853Z,5.60
2018-07-15T11:47:05.750Z,5.50
2018-07-15T11:49:34.505Z,6.33
2018-07-15T11:52:03.256Z,5.20
2018-07-15T11:54:32.089Z,4.47
2018-07-15T11:57:00.786Z,5.10
2018-07-15T11:59:29.384Z,5.47
2018-07-15T12:01:58.084Z,3.53
2018-07-15T12:04:26.801Z,5.37
2018-07-15T12:06:55.542Z,5.37
2018-07-15T12:09:24.433Z,4.33
2018-07-15T12:11:52.965Z,4.97
2018-07-15T12:14:21.648Z,4.93
2018-07-15T12:16:50.565Z,4.83
2018-07-15T12:19:19.353Z,5.20
2018-07-15T12:21:48.129Z,4.53
2018-07-15T12:24:16.935Z,6.83
2018-07-15T12:26:45.643Z,4.07
2018-07-15T12:29:14.197Z,3.90
2018-07-15T12:31:42.653Z,3.73
2018-07-15T12:34:11.558Z,4.63
2018-07-15T12:36:40.301Z,4.47
2018-07-15T12:39:09.245Z,3.77
2018-07-15T12:41:38.161Z,4.23
2018-07-15T12:44:06.931Z,4.83
2018-07-15T12:46:35.683Z,4.60
2018-07-15T12:49:04.510Z,4.83
2018-07-15T12:51:33.278Z,6.87
2018-07-15T12:54:02.155Z,4.03
2018-07-15T12:56:30.893Z,3.23
2018-07-15T12:58:59.505Z,4.80
2018-07-15T13:01:28.209Z,4.00
2018-07-15T13:03:56.992Z,4.17
2018-07-15T13:06:25.733Z,4.77
2018-07-15T13:08:54.518Z,3.90
2018-07-15T13:11:23.384Z,3.93
2018-07-15T13:13:52.149Z,4.77
2018-07-15T13:16:20.972Z,3.30
2018-07-15T13:18:49.645Z,3.87
2018-07-15T13:21:18.494Z,4.57
2018-07-15T13:23:47.241Z,5.33
2018-07-15T13:26:16.006Z,4.03
2018-07-15T13:28:44.744Z,4.00
2018-07-15T13:31:13.345Z,3.90
2018-07-15T13:33:42.006Z,4.53
2018-07-15T13:36:10.569Z,4.47
2018-07-15T13:38:39.269Z,4.10
2018-07-15T13:41:08.165Z,4.13
2018-07-15T13:43:36.688Z,6.90
2018-07-15T13:46:05.529Z,4.80
2018-07-15T13:48:34.293Z,4.40
2018-07-15T13:51:03.372Z,5.70
2018-07-15T13:53:32.109Z,4.17
2018-07-15T13:56:00.713Z,3.67
2018-07-15T13:58:29.385Z,5.17
2018-07-15T14:00:57.941Z,4.57
2018-07-15T14:03:26.617Z,6.93
2018-07-15T14:05:55.386Z,6.63
2018-07-15T14:08:24.134Z,3.90
2018-07-15T14:10:52.928Z,5.83
2018-07-15T14:13:21.661Z,4.77
2018-07-15T14:15:50.401Z,5.70
2018-07-15T14:18:18.974Z,5.77
2018-07-15T14:20:47.657Z,3.60
2018-07-15T14:23:16.403Z,4.13
2018-07-15T14:25:45.205Z,5.53
2018-07-15T14:28:13.962Z,4.27
2018-07-15T14:30:42.731Z,3.20
2018-07-15T14:33:11.304Z,5.00
2018-07-15T14:35:40.202Z,4.93
2018-07-15T14:38:09.073Z,5.23
2018-07-15T14:40:37.915Z,4.97
2018-07-15T14:43:06.678Z,3.77
2018-07-15T14:45:39.945Z,3.13
2018-07-15T14:48:08.710Z,3.93
2018-07-15T14:50:37.645Z,3.50
2018-07-15T14:53:06.732Z,3.50
2018-07-15T14:55:35.897Z,3.73
2018-07-15T14:58:04.674Z,4.03
2018-07-15T15:00:34.235Z,6.40
2018-07-15T15:03:03.013Z,4.70
2018-07-15T15:05:31.830Z,5.23
2018-07-15T15:08:00.572Z,3.50
2018-07-15T15:10:29.715Z,5.77
2018-07-15T15:12:58.718Z,5.40
2018-07-15T15:15:27.470Z,5.03
2018-07-15T15:17:56.052Z,5.90
2018-07-15T15:20:24.724Z,4.07
2018-07-15T15:22:53.473Z,4.57
2018-07-15T15:25:22.229Z,3.27
2018-07-15T15:27:51.105Z,3.40
2018-07-15T15:30:19.686Z,4.70
2018-07-15T15:32:48.529Z,3.90
2018-07-15T15:35:17.270Z,5.40
2018-07-15T15:37:46.042Z,4.27
2018-07-15T15:40:14.784Z,6.57
2018-07-15T15:42:43.536Z,5.40
2018-07-15T15:45:12.084Z,5.53
2018-07-15T15:47:40.796Z,4.20
2018-07-15T15:50:09.360Z,4.10
2018-07-15T15:52:38.020Z,2.97
2018-07-15T15:55:06.957Z,2.90
2018-07-15T15:57:35.557Z,3.87
2018-07-15T16:00:04.371Z,6.97
2018-07-15T16:02:33.134Z,4.87
2018-07-15T16:05:01.898Z,4.27
2018-07-15T16:07:30.986Z,4.00
2018-07-15T16:09:59.738Z,3.67
2018-07-15T16:12:28.525Z,4.20
2018-07-15T16:14:57.269Z,6.93
2018-07-15T16:17:26.033Z,3.43
2018-07-15T16:19:54.779Z,3.50
2018-07-15T16:22:23.550Z,5.73
2018-07-15T16:24:52.310Z,3.73
2018-07-15T16:27:21.073Z,3.70
2018-07-15T16:29:49.837Z,2.90
2018-07-15T16:32:18.661Z,6.13
2018-07-15T16:34:47.429Z,4.00
2018-07-15T16:37:16.225Z,5.63
2018-07-15T16:39:45.046Z,3.33
2018-07-15T16:42:13.805Z,5.67
2018-07-15T16:44:42.565Z,4.57
2018-07-15T16:47:11.426Z,3.83
2018-07-15T16:49:39.985Z,3.67
2018-07-15T16:52:08.662Z,2.67
2018-07-15T16:54:37.418Z,4.17
2018-07-15T16:57:06.181Z,4.30
2018-07-15T16:59:35.054Z,3.20
2018-07-15T17:02:03.663Z,4.63
2018-07-15T17:04:32.463Z,7.07
2018-07-15T17:07:01.327Z,4.07
2018-07-15T17:09:30.089Z,3.83
2018-07-15T17:11:58.862Z,2.67
2018-07-15T17:14:27.629Z,4.50
2018-07-15T17:16:56.453Z,3.20
2018-07-15T17:19:25.197Z,2.30
2018-07-15T17:21:54.014Z,4.33
2018-07-15T17:24:22.770Z,3.27
2018-07-15T17:26:51.583Z,2.90
2018-07-15T17:29:20.325Z,2.57
2018-07-15T17:31:49.098Z,2.67
2018-07-15T17:34:18.010Z,3.10
2018-07-15T17:36:46.741Z,5.93
2018-07-15T17:39:15.492Z,2.60
2018-07-15T17:41:44.261Z,4.33
2018-07-15T17:44:13.018Z,4.13
2018-07-15T17:46:41.765Z,3.03
2018-07-15T17:49:10.529Z,5.33
2018-07-15T17:51:39.274Z,3.23
2018-07-15T17:54:08.038Z,2.10
2018-07-15T17:56:36.800Z,1.60
2018-07-15T17:59:05.573Z,3.07
2018-07-15T18:01:34.565Z,3.80
2018-07-15T18:04:03.325Z,3.53
2018-07-15T18:06:32.081Z,3.03
2018-07-15T18:09:00.869Z,2.30
2018-07-15T18:11:29.609Z,3.63
2018-07-15T18:13:58.365Z,1.97
2018-07-15T18:16:27.165Z,1.60
2018-07-15T18:18:56.070Z,3.07
2018-07-15T18:21:24.841Z,3.57
2018-07-15T18:23:53.581Z,2.40
2018-07-15T18:26:22.337Z,1.80
2018-07-15T18:28:51.186Z,2.90
2018-07-15T18:31:19.924Z,2.70
2018-07-15T18:33:48.706Z,2.83
2018-07-15T18:36:17.449Z,5.23
2018-07-15T18:38:46.340Z,3.10
2018-07-15T18:41:15.077Z,2.10
2018-07-15T18:43:44.003Z,3.13
2018-07-15T18:46:12.682Z,2.30
2018-07-15T18:48:41.449Z,2.50
2018-07-15T18:51:10.234Z,2.07
2018-07-15T18:53:39.051Z,2.97
2018-07-15T18:56:07.725Z,2.00
2018-07-15T18:58:36.541Z,1.80
2018-07-15T19:01:05.305Z,3.73
2018-07-15T19:03:34.076Z,2.53
2018-07-15T19:06:02.814Z,2.57
2018-07-15T19:08:31.569Z,3.10
2018-07-15T19:11:00.367Z,3.40
2018-07-15T19:13:29.158Z,2.70
2018-07-15T19:15:57.906Z,3.10
2018-07-15T19:18:26.691Z,2.90
2018-07-15T19:20:55.449Z,2.00
2018-07-15T19:23:24.278Z,4.27
2018-07-15T19:25:53.192Z,2.17
2018-07-15T19:28:21.976Z,2.63
2018-07-15T19:30:50.737Z,2.60
2018-07-15T19:33:19.517Z,3.07
2018-07-15T19:35:48.258Z,2.50
2018-07-15T19:38:17.025Z,3.90
2018-07-15T19:40:45.757Z,2.77
2018-07-15T19:43:14.566Z,2.80
2018-07-15T19:45:43.297Z,6.17
2018-07-15T19:48:12.133Z,3.87
2018-07-15T19:50:41.022Z,3.43
2018-07-15T19:53:09.781Z,3.10
2018-07-15T19:55:38.640Z,3.83
2018-07-15T19:58:07.426Z,2.23
2018-07-15T20:00:36.190Z,3.13
2018-07-15T20:03:04.950Z,2.73
2018-07-15T20:05:33.693Z,3.47
2018-07-15T20:08:02.437Z,2.63
2018-07-15T20:10:31.445Z,5.17
2018-07-15T20:13:00.200Z,2.87
2018-07-15T20:15:30.533Z,5.53
2018-07-15T20:17:59.271Z,5.03
2018-07-15T20:20:28.010Z,3.63
2018-07-15T20:22:56.755Z,3.80
2018-07-15T20:25:25.504Z,4.07
2018-07-15T20:27:54.264Z,3.97
2018-07-15T20:30:23.029Z,3.40
2018-07-15T20:32:51.873Z,3.77
2018-07-15T20:35:20.617Z,3.73
2018-07-15T20:37:49.361Z,4.10
2018-07-15T20:40:18.092Z,4.83
2018-07-15T20:42:46.850Z,4.67
2018-07-15T20:45:15.597Z,5.13
2018-07-15T20:47:44.350Z,4.90
2018-07-15T20:50:13.197Z,5.23
2018-07-15T20:52:41.981Z,5.23
2018-07-15T20:55:10.749Z,4.90
2018-07-15T20:57:39.487Z,5.70
2018-07-15T21:00:08.410Z,5.93
2018-07-15T21:02:37.180Z,3.97
2018-07-15T21:05:05.901Z,5.60
2018-07-15T21:07:34.649Z,5.87
2018-07-15T21:10:03.406Z,5.00
2018-07-15T21:12:32.145Z,4.63
2018-07-15T21:15:00.917Z,7.90
2018-07-15T21:17:29.664Z,4.87
2018-07-15T21:19:58.409Z,5.67
2018-07-15T21:22:27.145Z,3.33
2018-07-15T21:24:56.177Z,3.80
2018-07-15T21:27:24.950Z,7.83
2018-07-15T21:29:53.701Z,5.67
2018-07-15T21:32:22.441Z,4.97
2018-07-15T21:34:51.194Z,5.80
2018-07-15T21:37:19.950Z,6.03
2018-07-15T21:39:48.698Z,3.40
2018-07-15T21:42:17.456Z,4.40
2018-07-15T21:44:46.258Z,3.90
2018-07-15T21:47:15.005Z,4.80
2018-07-15T21:49:43.779Z,5.20
2018-07-15T21:52:12.506Z,6.43
2018-07-15T21:54:41.292Z,4.83
2018-07-15T21:57:10.196Z,5.53
2018-07-15T21:59:39.010Z,9.50
2018-07-15T22:02:07.754Z,6.50
2018-07-15T22:04:36.504Z,5.63
2018-07-15T22:07:16.645Z,5.97
2018-07-15T22:09:57.837Z,5.20
2018-07-15T22:12:26.570Z,5.20
2018-07-15T22:14:55.328Z,5.13
2018-07-15T22:17:24.049Z,5.73
2018-07-15T22:19:52.838Z,4.83
2018-07-15T22:22:21.561Z,4.87
2018-07-15T22:24:50.351Z,4.57
2018-07-15T22:27:19.156Z,5.80
2018-07-15T22:29:47.892Z,3.57
2018-07-15T22:32:16.661Z,4.30
2018-07-15T22:34:45.408Z,5.07
2018-07-15T22:37:14.178Z,4.57
2018-07-15T22:39:42.942Z,6.47
2018-07-15T22:42:11.729Z,4.77
2018-07-15T22:44:40.492Z,5.97
2018-07-15T22:47:09.241Z,3.43
2018-07-15T22:49:38.073Z,4.17
2018-07-15T22:52:06.870Z,5.43
2018-07-15T22:54:35.612Z,4.40
2018-07-15T22:57:04.174Z,3.30
2018-07-15T22:59:32.840Z,4.37
2018-07-15T23:02:01.638Z,4.57
2018-07-15T23:05:41.742Z,3.90
2018-07-15T23:08:10.725Z,5.03
2018-07-15T23:10:39.477Z,4.83
2018-07-15T23:13:09.221Z,5.70
2018-07-15T23:15:38.251Z,4.57
2018-07-15T23:18:06.902Z,3.80
2018-07-15T23:20:36.312Z,4.77
2018-07-15T23:23:05.926Z,3.87
2018-07-15T23:25:34.797Z,4.77
2018-07-15T23:28:04.225Z,4.13
2018-07-15T23:30:33.714Z,3.93
2018-07-15T23:33:02.742Z,4.33
2018-07-15T23:35:31.801Z,3.80
2018-07-15T23:38:00.528Z,3.90
2018-07-15T23:40:29.182Z,5.80
2018-07-15T23:42:58.589Z,5.57
2018-07-15T23:45:28.291Z,5.63
2018-07-15T23:47:57.113Z,8.43
2018-07-15T23:50:25.974Z,6.77
2018-07-15T23:52:54.704Z,7.80
2018-07-15T23:55:23.545Z,6.00
2018-07-15T23:57:52.417Z,7.33
